Time;durP1;ratioP1;P1;durP2;ratioP2;P2;SDS_P1;SDS_P2;PMS_P1;PMS_P2;Temp;Humidity;BMP_temperature;BMP_pressure;BME280_temperature;BME280_humidity;BME280_pressure;Samples;Min_cycle;Max_cycle;Signal;HPM_P1;HPM_P2
2021/10/22 00:00:50;;;;;;;0.30;0.20;;;;;;;6.08;100.00;100299.88;5026909;28;20598;-49
2021/10/22 00:03:16;;;;;;;0.30;0.20;;;;;;;6.26;100.00;100300.56;5013587;28;20477;-50
2021/10/22 00:05:43;;;;;;;0.30;0.20;;;;;;;6.23;100.00;100297.06;5026682;28;20452;-49
2021/10/22 00:08:10;;;;;;;0.30;0.20;;;;;;;6.66;100.00;100301.84;5013388;28;20456;-49
2021/10/22 00:10:36;;;;;;;0.30;0.20;;;;;;;6.77;100.00;100297.31;5029965;28;20492;-49
2021/10/22 00:13:03;;;;;;;0.30;0.20;;;;;;;7.05;100.00;100303.09;5022260;28;20453;-49
2021/10/22 00:15:30;;;;;;;0.30;0.20;;;;;;;7.30;100.00;100314.19;5018092;28;20941;-49
2021/10/22 00:17:57;;;;;;;0.30;0.20;;;;;;;7.32;100.00;100306.22;5021702;28;20977;-49
2021/10/22 00:20:24;;;;;;;0.30;0.20;;;;;;;7.65;100.00;100302.16;5018203;28;20444;-50
2021/10/22 00:22:50;;;;;;;0.30;0.20;;;;;;;7.63;100.00;100311.91;5020998;28;20475;-50
2021/10/22 00:25:19;;;;;;;0.30;0.20;;;;;;;7.83;100.00;100315.09;5030728;28;20514;-50
2021/10/22 00:27:46;;;;;;;0.30;0.20;;;;;;;7.37;100.00;100307.03;5032353;28;20454;-50
2021/10/22 00:30:13;;;;;;;0.30;0.20;;;;;;;7.42;100.00;100313.13;5013652;28;20543;-50
2021/10/22 00:32:39;;;;;;;0.30;0.20;;;;;;;7.47;100.00;100313.06;5025502;28;20452;-50
2021/10/22 00:35:06;;;;;;;0.30;0.20;;;;;;;7.40;100.00;100318.44;5013281;28;20825;-49
2021/10/22 00:37:33;;;;;;;0.30;0.20;;;;;;;7.22;100.00;100313.41;5025372;28;20487;-49
2021/10/22 00:40:00;;;;;;;0.30;0.20;;;;;;;7.05;100.00;100312.78;5013292;28;20820;-50
2021/10/22 00:42:26;;;;;;;0.30;0.20;;;;;;;7.14;100.00;100317.97;5025545;28;20537;-49
2021/10/22 00:44:53;;;;;;;0.30;0.20;;;;;;;7.04;100.00;100317.19;5013016;28;20487;-49
2021/10/22 00:47:20;;;;;;;0.30;0.20;;;;;;;7.10;100.00;100309.19;5025593;28;20452;-49
2021/10/22 00:49:46;;;;;;;0.30;0.20;;;;;;;7.19;100.00;100321.41;5012711;28;21019;-50
2021/10/22 00:52:25;;;;;;;0.30;0.20;;;;;;;7.42;100.00;100314.00;5025786;28;20934;-50
2021/10/22 00:54:54;;;;;;;0.30;0.20;;;;;;;7.49;100.00;100316.53;5032457;28;20479;-50
2021/10/22 00:57:21;;;;;;;0.30;0.20;;;;;;;7.60;100.00;100318.13;5030428;28;20490;-50
2021/10/22 00:59:48;;;;;;;0.30;0.20;;;;;;;7.02;100.00;100321.63;5012775;28;20499;-50
2021/10/22 01:02:15;;;;;;;0.30;0.20;;;;;;;6.90;100.00;100321.81;5025772;28;20482;-50
2021/10/22 01:04:42;;;;;;;0.30;0.20;;;;;;;6.68;100.00;100326.47;5012803;28;20526;-50
2021/10/22 01:07:14;;;;;;;0.30;0.20;;;;;;;6.57;100.00;100328.34;5025822;28;20452;-50
2021/10/22 01:09:43;;;;;;;0.30;0.10;;;;;;;6.40;100.00;100328.56;5012681;28;20444;-49
2021/10/22 01:12:11;;;;;;;0.30;0.20;;;;;;;6.34;100.00;100325.13;5025857;28;20546;-50
2021/10/22 01:14:39;;;;;;;0.30;0.20;;;;;;;6.20;100.00;100320.88;5012299;28;20492;-50
2021/10/22 01:17:05;;;;;;;0.30;0.20;;;;;;;5.84;100.00;100329.97;5024455;28;20476;-50
2021/10/22 01:19:32;;;;;;;0.30;0.20;;;;;;;5.74;100.00;100336.19;5012641;28;20483;-51
2021/10/22 01:21:59;;;;;;;0.30;0.20;;;;;;;5.73;100.00;100337.09;5025835;28;20452;-50
2021/10/22 01:24:26;;;;;;;0.30;0.20;;;;;;;5.75;100.00;100335.31;5023340;28;20530;-48
2021/10/22 01:26:52;;;;;;;0.30;0.20;;;;;;;5.59;100.00;100331.03;5028146;28;20521;-49
2021/10/22 01:29:20;;;;;;;0.30;0.20;;;;;;;5.76;100.00;100328.28;5012389;28;20565;-49
2021/10/22 01:31:47;;;;;;;0.30;0.20;;;;;;;5.67;100.00;100326.59;5025672;28;20568;-48
2021/10/22 01:34:13;;;;;;;0.40;0.30;;;;;;;5.64;100.00;100335.41;5012196;28;20478;-49
2021/10/22 01:36:40;;;;;;;0.30;0.20;;;;;;;5.63;100.00;100335.44;5025579;28;20456;-48
2021/10/22 01:39:07;;;;;;;0.30;0.20;;;;;;;5.50;100.00;100332.00;5013423;28;21016;-48
2021/10/22 01:41:34;;;;;;;0.30;0.20;;;;;;;5.50;100.00;100324.09;5029663;28;20503;-49
2021/10/22 01:44:01;;;;;;;0.30;0.20;;;;;;;5.52;100.00;100332.00;5016312;28;20535;-49
2021/10/22 01:46:28;;;;;;;0.40;0.30;;;;;;;5.40;100.00;100332.94;5020924;28;20543;-49
2021/10/22 01:48:56;;;;;;;0.30;0.20;;;;;;;5.41;100.00;100341.72;5024760;28;20448;-48
2021/10/22 01:51:22;;;;;;;0.30;0.20;;;;;;;5.32;100.00;100333.00;5020635;28;21011;-50
2021/10/22 01:53:49;;;;;;;0.30;0.20;;;;;;;4.82;100.00;100340.31;5029812;28;20475;-48
2021/10/22 01:56:16;;;;;;;0.30;0.20;;;;;;;5.00;100.00;100342.84;5030562;28;20453;-49
2021/10/22 01:58:42;;;;;;;0.30;0.20;;;;;;;4.88;100.00;100345.53;5016131;28;20480;-49
2021/10/22 02:01:09;;;;;;;0.30;0.20;;;;;;;5.03;100.00;100345.47;5029205;28;20484;-48
2021/10/22 02:03:35;;;;;;;0.30;0.20;;;;;;;5.00;100.00;100346.38;5015688;28;20503;-49
2021/10/22 02:06:02;;;;;;;0.30;0.20;;;;;;;4.90;100.00;100344.66;5029056;28;20522;-49
2021/10/22 02:08:29;;;;;;;0.30;0.20;;;;;;;4.90;100.00;100346.41;5015671;28;21036;-48
2021/10/22 02:10:56;;;;;;;0.30;0.20;;;;;;;4.86;100.00;100342.03;5034264;28;20487;-50
2021/10/22 02:13:22;;;;;;;0.30;0.20;;;;;;;5.12;100.00;100355.97;5021718;28;20862;-49
2021/10/22 02:15:49;;;;;;;0.30;0.13;;;;;;;5.12;100.00;100349.81;5022709;28;20455;-49
2021/10/22 02:18:15;;;;;;;0.57;0.57;;;;;;;5.09;100.00;100348.09;5021327;28;20888;-49
2021/10/22 02:20:42;;;;;;;0.30;0.20;;;;;;;5.05;100.00;100351.59;5022804;28;20941;-49
2021/10/22 02:23:09;;;;;;;0.30;0.20;;;;;;;5.00;100.00;100351.63;5020968;28;20484;-52
2021/10/22 02:25:35;;;;;;;0.30;0.20;;;;;;;4.97;100.00;100359.56;5035125;28;20490;-50
2021/10/22 02:28:02;;;;;;;0.30;0.20;;;;;;;4.93;100.00;100356.91;5024320;28;20451;-50
2021/10/22 02:30:29;;;;;;;0.30;0.20;;;;;;;4.78;100.00;100355.22;5034202;28;20491;-49
2021/10/22 02:32:56;;;;;;;0.30;0.20;;;;;;;4.85;100.00;100353.47;5020807;28;20448;-50
2021/10/22 02:35:22;;;;;;;0.30;0.20;;;;;;;4.88;100.00;100354.31;5023065;28;20452;-50
2021/10/22 02:37:49;;;;;;;0.30;0.20;;;;;;;4.83;100.00;100352.59;5021421;28;20449;-50
2021/10/22 02:40:16;;;;;;;0.30;0.20;;;;;;;4.88;100.00;100354.31;5027131;28;20472;-49
2021/10/22 02:42:42;;;;;;;0.30;0.20;;;;;;;5.22;100.00;100368.22;5028645;28;20694;-49
2021/10/22 02:45:09;;;;;;;0.30;0.20;;;;;;;5.53;100.00;100373.28;5014951;28;20986;-50
2021/10/22 02:47:36;;;;;;;0.30;0.20;;;;;;;4.95;100.00;100368.34;5028380;28;20509;-50
2021/10/22 02:50:03;;;;;;;0.30;0.20;;;;;;;4.82;100.00;100370.16;5014782;28;20498;-50
2021/10/22 02:52:30;;;;;;;0.30;0.20;;;;;;;4.97;100.00;100370.09;5027519;28;20487;-50
2021/10/22 02:54:57;;;;;;;0.30;0.20;;;;;;;4.81;100.00;100363.16;5029942;28;20476;-50
2021/10/22 02:57:23;;;;;;;0.30;0.20;;;;;;;4.70;100.00;100363.19;5019386;28;20503;-49
2021/10/22 02:59:50;;;;;;;0.30;0.20;;;;;;;4.74;100.00;100369.31;5023635;28;20456;-51
2021/10/22 03:02:18;;;;;;;0.30;0.20;;;;;;;4.48;100.00;100364.13;5032152;28;20957;-49
2021/10/22 03:04:45;;;;;;;0.30;0.20;;;;;;;4.37;100.00;100363.25;5014679;28;20476;-51
2021/10/22 03:07:12;;;;;;;0.30;0.20;;;;;;;4.37;100.00;100371.16;5027750;28;20876;-49
2021/10/22 03:09:38;;;;;;;0.30;0.20;;;;;;;4.58;100.00;100370.25;5014921;28;20448;-50
2021/10/22 03:12:05;;;;;;;0.30;0.20;;;;;;;4.55;100.00;100380.78;5027603;28;21009;-49
2021/10/22 03:14:32;;;;;;;0.30;0.20;;;;;;;4.46;100.00;100371.16;5014564;28;20469;-49
2021/10/22 03:16:59;;;;;;;0.30;0.20;;;;;;;4.61;100.00;100376.34;5027790;28;20456;-50
2021/10/22 03:19:26;;;;;;;0.30;0.13;;;;;;;4.55;100.00;100381.66;5014530;28;20455;-49
2021/10/22 03:21:52;;;;;;;0.30;0.20;;;;;;;4.41;100.00;100380.81;5027477;28;20942;-49
2021/10/22 03:24:19;;;;;;;0.30;0.17;;;;;;;4.30;100.00;100386.09;5023841;28;20529;-50
2021/10/22 03:26:45;;;;;;;0.30;0.20;;;;;;;4.17;100.00;100387.00;5030818;28;20484;-49
2021/10/22 03:29:12;;;;;;;0.30;0.20;;;;;;;4.25;100.00;100387.88;5013120;28;20448;-49
2021/10/22 03:31:39;;;;;;;0.30;0.20;;;;;;;4.25;100.00;100389.59;5027268;28;20499;-49
2021/10/22 03:34:05;;;;;;;0.30;0.20;;;;;;;4.22;100.00;100393.09;5013947;28;20527;-50
2021/10/22 03:36:34;;;;;;;0.30;0.20;;;;;;;4.20;100.00;100392.25;5027307;28;20448;-48
2021/10/22 03:39:03;;;;;;;0.30;0.20;;;;;;;4.16;100.00;100387.88;5014240;28;20449;-47
2021/10/22 03:41:30;;;;;;;0.30;0.20;;;;;;;4.22;100.00;100379.06;5027301;28;20444;-48
2021/10/22 03:43:56;;;;;;;0.30;0.20;;;;;;;4.01;100.00;100382.63;5013951;28;20504;-47
2021/10/22 03:46:23;;;;;;;0.30;0.20;;;;;;;4.01;100.00;100377.38;5027293;28;20483;-47
2021/10/22 03:48:50;;;;;;;0.30;0.20;;;;;;;3.98;100.00;100383.50;5013930;28;20491;-48
2021/10/22 03:51:16;;;;;;;0.30;0.20;;;;;;;4.01;100.00;100380.88;5027144;28;20990;-48
2021/10/22 03:53:43;;;;;;;0.30;0.20;;;;;;;3.93;100.00;100384.38;5018601;28;20471;-47
2021/10/22 03:56:10;;;;;;;0.30;0.20;;;;;;;3.67;100.00;100387.84;5029101;28;20459;-48
2021/10/22 03:58:36;;;;;;;0.30;0.20;;;;;;;3.86;100.00;100379.13;5013735;28;20449;-48
2021/10/22 04:01:03;;;;;;;0.30;0.20;;;;;;;4.23;100.00;100379.06;5027009;28;20448;-47
2021/10/22 04:03:30;;;;;;;0.30;0.10;;;;;;;4.54;100.00;100385.16;5012364;28;20812;-47
2021/10/22 04:05:56;;;;;;;0.30;0.20;;;;;;;4.74;100.00;100385.09;5026487;28;20452;-48
2021/10/22 04:08:23;;;;;;;0.30;0.20;;;;;;;4.70;100.00;100392.13;5013544;28;20480;-47
2021/10/22 04:10:50;;;;;;;0.30;0.20;;;;;;;4.74;100.00;100385.97;5031518;28;20443;-47
2021/10/22 04:13:16;;;;;;;0.30;0.20;;;;;;;4.75;100.00;100385.09;5020400;28;20472;-48
2021/10/22 04:15:43;;;;;;;0.30;0.20;;;;;;;4.68;100.00;100383.38;5019521;28;20799;-48
2021/10/22 04:18:11;;;;;;;0.30;0.20;;;;;;;4.62;100.00;100382.50;5020145;28;20456;-48
2021/10/22 04:20:38;;;;;;;0.30;0.13;;;;;;;4.52;100.00;100391.28;5019641;28;20482;-47
2021/10/22 04:23:08;;;;;;;0.30;0.20;;;;;;;4.56;100.00;100385.16;5019370;28;20555;-48
2021/10/22 04:25:35;;;;;;;0.30;0.20;;;;;;;4.63;100.00;100397.41;5020558;28;20822;-48
2021/10/22 04:28:03;;;;;;;0.73;0.73;;;;;;;4.42;100.00;100391.34;5018750;28;21008;-47
2021/10/22 04:30:30;;;;;;;0.30;0.20;;;;;;;4.21;100.00;100399.25;5020710;28;20452;-47
2021/10/22 04:32:58;;;;;;;0.30;0.20;;;;;;;4.05;100.00;100398.38;5018371;28;20926;-48
2021/10/22 04:35:25;;;;;;;0.30;0.20;;;;;;;3.98;100.00;100399.28;5020745;28;20451;-48
2021/10/22 04:40:31;;;;;;;0.30;0.20;;;;;;;4.06;100.00;100407.16;5021176;28;20451;-48
2021/10/22 04:43:04;;;;;;;0.30;0.10;;;;;;;4.11;100.00;100405.38;5015952;28;20444;-47
2021/10/22 04:45:34;;;;;;;0.30;0.20;;;;;;;4.03;100.00;100391.38;5023887;28;20452;-47
2021/10/22 04:48:03;;;;;;;0.30;0.20;;;;;;;3.94;100.00;100397.50;5015261;28;20539;-47
2021/10/22 04:50:30;;;;;;;0.30;0.20;;;;;;;4.00;100.00;100396.66;5024803;28;20969;-48
2021/10/22 04:52:56;;;;;;;0.30;0.20;;;;;;;3.95;100.00;100395.75;5014229;28;20484;-47
2021/10/22 04:55:25;;;;;;;0.30;0.20;;;;;;;3.86;100.00;100397.53;5031094;28;20483;-48
2021/10/22 04:57:52;;;;;;;0.30;0.20;;;;;;;3.95;100.00;100407.16;5013655;28;20558;-48
2021/10/22 05:00:20;;;;;;;0.30;0.20;;;;;;;3.76;100.00;100406.28;5025433;28;20472;-47
2021/10/22 05:02:47;;;;;;;0.30;0.10;;;;;;;3.70;100.00;100405.38;5012897;28;20445;-48
2021/10/22 05:05:15;;;;;;;0.30;0.20;;;;;;;3.54;100.00;100400.09;5025543;28;20494;-48
2021/10/22 05:07:43;;;;;;;0.30;0.20;;;;;;;3.69;100.00;100396.63;5019165;28;20509;-47
2021/10/22 05:10:10;;;;;;;0.30;0.20;;;;;;;3.64;100.00;100401.00;5020139;28;20453;-48
2021/10/22 05:12:37;;;;;;;0.30;0.20;;;;;;;3.91;100.00;100387.00;5037172;28;20492;-47
2021/10/22 05:15:06;;;;;;;0.30;0.20;;;;;;;3.90;100.00;100390.50;5025104;28;21062;-47
2021/10/22 05:17:33;;;;;;;0.30;0.20;;;;;;;3.83;100.00;100389.63;5019235;28;20452;-47
2021/10/22 05:20:00;;;;;;;0.30;0.20;;;;;;;3.80;100.00;100392.25;5025583;28;20498;-48
2021/10/22 05:22:27;;;;;;;0.30;0.20;;;;;;;3.95;100.00;100391.38;5012416;28;20995;-47
2021/10/22 05:24:53;;;;;;;0.30;0.10;;;;;;;3.79;100.00;100392.25;5026722;28;20480;-48
2021/10/22 05:27:20;;;;;;;0.30;0.17;;;;;;;4.08;100.00;100408.03;5024104;28;20452;-47
2021/10/22 05:29:46;;;;;;;0.30;0.20;;;;;;;4.02;100.00;100401.03;5013947;28;20586;-48
2021/10/22 05:32:13;;;;;;;0.30;0.20;;;;;;;4.32;100.00;100394.84;5023823;28;20528;-47
2021/10/22 05:34:40;;;;;;;0.30;0.20;;;;;;;4.15;100.00;100391.38;5013804;28;20576;-48
2021/10/22 05:37:07;;;;;;;0.30;0.20;;;;;;;4.32;100.00;100399.25;5023582;28;21000;-48
2021/10/22 05:39:33;;;;;;;3.40;1.03;;;;;;;4.34;100.00;100393.09;5014307;28;20507;-48
2021/10/22 05:42:05;;;;;;;0.30;0.10;;;;;;;4.28;100.00;100402.75;5022834;28;20818;-47
2021/10/22 05:44:31;;;;;;;0.30;0.20;;;;;;;4.21;100.00;100390.47;5014816;28;20480;-47
2021/10/22 05:46:58;;;;;;;0.30;0.10;;;;;;;4.29;100.00;100399.25;5022600;28;20602;-48
2021/10/22 05:49:25;;;;;;;0.30;0.10;;;;;;;4.25;100.00;100401.03;5014968;28;20512;-48
2021/10/22 05:51:52;;;;;;;0.30;0.20;;;;;;;4.04;100.00;100398.41;5022621;28;20535;-48
2021/10/22 05:54:20;;;;;;;0.30;0.20;;;;;;;3.89;100.00;100404.53;5021916;28;20475;-48
2021/10/22 05:56:47;;;;;;;0.30;0.20;;;;;;;3.99;100.00;100395.78;5022525;28;20463;-48
2021/10/22 05:59:13;;;;;;;0.30;0.10;;;;;;;3.77;100.00;100402.75;5014771;28;20600;-48
2021/10/22 06:01:40;;;;;;;0.30;0.20;;;;;;;3.84;100.00;100408.91;5022296;28;20511;-48
2021/10/22 06:04:07;;;;;;;0.63;0.57;;;;;;;3.78;100.00;100411.53;5014983;28;20989;-48
2021/10/22 06:06:34;;;;;;;0.30;0.20;;;;;;;3.81;100.00;100412.41;5022224;28;20498;-47
2021/10/22 06:09:01;;;;;;;0.20;0.10;;;;;;;3.72;100.00;100409.78;5015358;28;20447;-48
2021/10/22 06:11:28;;;;;;;0.30;0.20;;;;;;;3.68;100.00;100426.41;5031769;28;20487;-48
2021/10/22 06:13:55;;;;;;;0.30;0.20;;;;;;;3.61;100.00;100427.28;5013715;28;20548;-47
2021/10/22 06:16:22;;;;;;;0.30;0.10;;;;;;;3.53;100.00;100435.13;5023442;28;20455;-48
2021/10/22 06:18:51;;;;;;;0.30;0.20;;;;;;;3.48;100.00;100441.28;5012941;28;20449;-48
2021/10/22 06:24:00;;;;;;;0.30;0.10;;;;;;;3.64;100.00;100447.44;5018815;28;20533;-47
2021/10/22 06:26:31;;;;;;;0.30;0.20;;;;;;;3.66;100.00;100464.94;5029897;28;20940;-47
2021/10/22 06:29:00;;;;;;;0.30;0.20;;;;;;;3.60;100.00;100464.97;5015373;28;20487;-47
2021/10/22 06:31:27;;;;;;;0.30;0.20;;;;;;;3.63;100.00;100467.59;5028580;28;20464;-47
2021/10/22 06:33:54;;;;;;;0.30;0.20;;;;;;;3.74;100.00;100467.63;5015205;28;20500;-47
2021/10/22 06:36:21;;;;;;;0.30;0.10;;;;;;;3.84;100.00;100474.66;5028569;28;20464;-47
2021/10/22 06:38:47;;;;;;;0.30;0.20;;;;;;;4.05;100.00;100474.66;5015272;28;20453;-48
2021/10/22 06:41:14;;;;;;;0.30;0.30;;;;;;;3.95;100.00;100483.41;5028479;28;20475;-47
2021/10/22 06:43:41;;;;;;;0.30;0.10;;;;;;;3.91;100.00;100488.66;5014825;28;20472;-47
2021/10/22 06:46:09;;;;;;;0.30;0.20;;;;;;;3.91;100.00;100491.31;5028121;28;20522;-47
2021/10/22 06:48:37;;;;;;;0.30;0.10;;;;;;;3.96;100.00;100490.41;5015014;28;20867;-47
2021/10/22 06:51:08;;;;;;;0.30;0.10;;;;;;;4.02;100.00;100502.72;5027843;28;21064;-48
2021/10/22 06:53:36;;;;;;;0.30;0.20;;;;;;;4.12;100.00;100508.00;5018447;28;21008;-47
2021/10/22 06:56:04;;;;;;;0.30;0.10;;;;;;;4.10;100.00;100504.47;5029664;28;20515;-47
2021/10/22 06:58:31;;;;;;;0.30;0.20;;;;;;;4.13;100.00;100507.13;5014672;28;20456;-47
2021/10/22 07:00:59;;;;;;;0.30;0.20;;;;;;;4.27;100.00;100508.88;5026883;28;20519;-47
2021/10/22 07:03:27;;;;;;;0.20;0.10;;;;;;;4.39;100.00;100515.03;5014568;28;20477;-48
2021/10/22 07:08:25;;;;;;;0.30;0.10;;;;;;;4.53;100.00;100517.66;5014518;28;20507;-48
2021/10/22 07:10:53;;;;;;;0.30;0.20;;;;;;;4.76;100.00;100526.38;5021263;28;20495;-47
2021/10/22 07:13:23;;;;;;;0.30;0.20;;;;;;;4.85;100.00;100516.75;5020900;28;20495;-47
2021/10/22 07:15:50;;;;;;;0.30;0.20;;;;;;;4.93;100.00;100515.81;5021770;28;20447;-47
2021/10/22 07:18:16;;;;;;;0.30;0.20;;;;;;;5.00;100.00;100516.69;5020070;28;20457;-47
2021/10/22 07:20:43;;;;;;;0.30;0.20;;;;;;;5.10;100.00;100522.84;5021894;28;20491;-47
2021/10/22 07:23:11;;;;;;;0.30;0.20;;;;;;;5.22;100.00;100518.41;5019788;28;20471;-47
2021/10/22 07:25:40;;;;;;;0.30;0.20;;;;;;;5.25;100.00;100517.50;5034437;28;20494;-49
2021/10/22 07:28:12;;;;;;;0.27;0.13;;;;;;;5.41;100.00;100528.88;5019392;28;20453;-49
2021/10/22 07:30:44;;;;;;;0.60;0.57;;;;;;;5.58;100.00;100530.56;5023484;28;20454;-50
2021/10/22 07:33:14;;;;;;;0.30;0.20;;;;;;;5.65;100.00;100534.06;5030564;28;20488;-49
2021/10/22 07:35:41;;;;;;;0.30;0.20;;;;;;;5.62;100.00;100527.03;5014089;28;20969;-49
2021/10/22 07:38:12;;;;;;;0.30;0.20;;;;;;;5.66;100.00;100514.72;5026690;28;20455;-49
2021/10/22 07:40:40;;;;;;;0.30;0.20;;;;;;;5.65;100.00;100529.66;5013968;28;20453;-49
2021/10/22 07:43:07;;;;;;;0.30;0.20;;;;;;;5.84;100.00;100524.28;5026911;28;20476;-50
2021/10/22 07:45:35;;;;;;;0.30;0.20;;;;;;;5.86;100.00;100525.13;5013874;28;20456;-50
2021/10/22 07:48:02;;;;;;;0.30;0.20;;;;;;;5.92;100.00;100523.38;5026878;28;20491;-50
2021/10/22 07:50:28;;;;;;;0.30;0.20;;;;;;;6.18;100.00;100523.22;5013793;28;20515;-50
2021/10/22 07:52:55;;;;;;;0.53;0.53;;;;;;;6.21;100.00;100523.19;5026641;28;20908;-50
2021/10/22 07:55:23;;;;;;;0.30;0.20;;;;;;;6.20;100.00;100529.38;5032223;28;20447;-49
2021/10/22 07:57:49;;;;;;;0.30;0.20;;;;;;;6.42;100.00;100522.13;5014008;28;20453;-50
2021/10/22 08:00:16;;;;;;;1.27;0.97;;;;;;;6.58;100.00;100530.84;5026605;28;20448;-50
2021/10/22 08:02:43;;;;;;;0.30;0.20;;;;;;;6.81;100.00;100525.31;5013588;28;20519;-50
2021/10/22 08:05:10;;;;;;;0.40;0.40;;;;;;;7.03;100.00;100526.88;5026363;28;20471;-50
2021/10/22 08:07:38;;;;;;;0.30;0.20;;;;;;;7.30;100.00;100524.81;5026905;28;20452;-50
2021/10/22 08:10:06;;;;;;;0.30;0.20;;;;;;;7.49;100.00;100525.47;5013183;28;20452;-50
2021/10/22 08:12:34;;;;;;;0.30;0.20;;;;;;;7.63;100.00;100516.47;5019877;28;20843;-49
2021/10/22 08:15:03;;;;;;;0.30;0.10;;;;;;;7.57;100.00;100518.34;5019503;28;20507;-50
2021/10/22 08:17:30;;;;;;;0.30;0.20;;;;;;;7.86;100.00;100518.81;5019923;28;20506;-50
2021/10/22 08:19:59;;;;;;;0.30;0.20;;;;;;;8.00;100.00;100508.03;5014003;28;20961;-50
2021/10/22 08:25:06;;;;;;;0.30;0.20;;;;;;;8.28;100.00;100511.13;5027351;28;20506;-50
2021/10/22 08:27:38;;;;;;;0.30;0.20;;;;;;;8.29;100.00;100513.75;5023246;28;20452;-50
2021/10/22 08:30:09;;;;;;;0.30;0.20;;;;;;;8.51;99.22;100514.34;5026157;28;20956;-50
2021/10/22 08:32:37;;;;;;;0.30;0.20;;;;;;;8.44;98.25;100517.09;5032916;28;20569;-49
2021/10/22 08:35:05;;;;;;;0.30;0.20;;;;;;;8.42;97.45;100514.47;5014559;28;20468;-49
2021/10/22 08:37:34;;;;;;;0.30;0.20;;;;;;;8.78;97.83;100504.16;5024879;28;20448;-49
2021/10/22 08:40:01;;;;;;;0.30;0.20;;;;;;;8.76;97.05;100500.63;5014038;28;20509;-49
2021/10/22 08:42:28;;;;;;;0.30;0.20;;;;;;;8.73;96.30;100508.66;5025626;28;20874;-52
2021/10/22 08:44:55;;;;;;;0.30;0.20;;;;;;;8.89;95.92;100503.03;5013461;28;20468;-52
2021/10/22 08:47:24;;;;;;;0.30;0.20;;;;;;;9.08;95.11;100500.94;5025543;28;20941;-49
2021/10/22 08:49:52;;;;;;;0.30;0.20;;;;;;;9.18;94.49;100512.22;5012595;28;20526;-50
2021/10/22 08:52:19;;;;;;;0.30;0.20;;;;;;;9.28;94.54;100515.59;5026333;28;20549;-50
2021/10/22 08:54:45;;;;;;;0.30;0.20;;;;;;;9.37;94.58;100513.63;5032538;28;20476;-49
2021/10/22 08:57:14;;;;;;;0.30;0.20;;;;;;;9.30;92.94;100505.81;5019161;28;20946;-50
2021/10/22 08:59:41;;;;;;;0.30;0.20;;;;;;;9.49;92.13;100515.16;5020296;28;20447;-49
2021/10/22 09:02:21;;;;;;;0.30;0.20;;;;;;;9.44;91.06;100527.63;5031325;28;20509;-50
2021/10/22 09:04:49;;;;;;;0.30;0.20;;;;;;;9.46;90.47;100516.09;5013250;28;20475;-49
2021/10/22 09:07:18;;;;;;;0.30;0.20;;;;;;;9.61;89.96;100519.34;5025748;28;20499;-49
2021/10/22 09:09:46;;;;;;;0.30;0.20;;;;;;;9.59;90.84;100511.41;5012716;28;20460;-49
2021/10/22 09:12:13;;;;;;;0.30;0.20;;;;;;;9.53;90.27;100513.31;5025967;28;20975;-50
2021/10/22 09:15:03;;;;;;;0.30;0.20;;;;;;;9.69;91.38;100515.59;5012810;28;20522;-50
2021/10/22 09:17:37;;;;;;;0.30;0.20;;;;;;;9.77;90.06;100518.97;5018972;28;20980;-50
2021/10/22 09:20:07;;;;;;;0.30;0.20;;;;;;;9.83;89.21;100525.94;5025936;28;20505;-49
2021/10/22 09:22:34;;;;;;;0.30;0.20;;;;;;;9.91;88.34;100531.09;5012678;28;20503;-49
2021/10/22 09:25:10;;;;;;;0.30;0.20;;;;;;;9.99;87.81;100532.66;5028975;28;20475;-50
2021/10/22 09:27:36;;;;;;;0.30;0.20;;;;;;;10.02;88.03;100534.38;5021236;28;20869;-49
2021/10/22 09:30:06;;;;;;;0.30;0.20;;;;;;;10.21;88.05;100529.50;5017008;28;20451;-49
2021/10/22 09:32:34;;;;;;;0.30;0.20;;;;;;;10.18;87.59;100529.59;5020851;28;20511;-49
2021/10/22 09:35:08;;;;;;;0.30;0.20;;;;;;;10.17;87.85;100528.72;5025584;28;20575;-50
2021/10/22 09:37:38;;;;;;;0.30;0.20;;;;;;;10.13;88.30;100537.66;5012683;28;20527;-49
2021/10/22 09:40:06;;;;;;;0.30;0.20;;;;;;;10.31;88.50;100531.97;5025135;28;20935;-49
2021/10/22 09:42:33;;;;;;;0.30;0.20;;;;;;;10.41;86.33;100542.34;5013575;28;20506;-49
2021/10/22 09:45:00;;;;;;;0.30;0.20;;;;;;;10.36;88.23;100546.00;5024581;28;20977;-50
2021/10/22 09:47:30;;;;;;;0.30;0.20;;;;;;;10.46;88.38;100536.03;5014016;28;20471;-50
2021/10/22 09:50:08;;;;;;;0.30;0.20;;;;;;;10.50;86.61;100552.78;5024509;28;20448;-50
2021/10/22 09:52:35;;;;;;;0.30;0.20;;;;;;;10.44;86.47;100558.25;5015712;28;20519;-49
2021/10/22 09:55:14;;;;;;;0.30;0.20;;;;;;;10.56;87.37;100548.19;5032184;28;20471;-49
2021/10/22 09:57:43;;;;;;;0.30;0.20;;;;;;;10.81;87.33;100553.75;5013790;28;20487;-50
2021/10/22 10:00:13;;;;;;;0.30;0.20;;;;;;;10.97;86.40;100554.25;5026002;28;20473;-50
2021/10/22 10:02:40;;;;;;;0.30;0.20;;;;;;;10.92;85.52;100554.34;5017000;28;20448;-50
2021/10/22 10:05:11;;;;;;;0.30;0.20;;;;;;;10.97;85.18;100549.81;5028586;28;20482;-50
2021/10/22 10:07:40;;;;;;;0.30;0.20;;;;;;;10.78;85.93;100552.97;5022994;28;20460;-50
2021/10/22 10:10:09;;;;;;;0.30;0.20;;;;;;;11.01;85.55;100555.91;5035471;28;20455;-50
2021/10/22 10:12:39;;;;;;;0.30;0.20;;;;;;;11.15;84.94;100556.44;5041263;28;20488;-50
2021/10/22 10:15:08;;;;;;;0.30;0.20;;;;;;;10.99;85.48;100549.78;5029281;28;20525;-50
2021/10/22 10:17:41;;;;;;;0.30;0.20;;;;;;;11.31;84.78;100543.56;5022476;28;20460;-50
2021/10/22 10:20:10;;;;;;;0.30;0.20;;;;;;;11.18;85.66;100545.69;5029136;28;20451;-49
2021/10/22 10:22:42;;;;;;;0.30;0.20;;;;;;;11.27;85.39;100548.13;5016001;28;21008;-50
2021/10/22 10:25:11;;;;;;;0.30;0.20;;;;;;;11.28;84.70;100549.00;5032529;28;20533;-50
2021/10/22 10:27:47;;;;;;;0.30;0.20;;;;;;;11.42;84.64;100551.28;5024929;28;20453;-49
2021/10/22 10:30:26;;;;;;;0.30;0.20;;;;;;;11.54;85.77;100556.25;5020954;28;20451;-50
2021/10/22 10:32:52;;;;;;;0.30;0.20;;;;;;;11.24;85.87;100542.00;5022014;28;20540;-50
2021/10/22 10:35:22;;;;;;;0.30;0.20;;;;;;;11.51;84.84;100551.00;5023178;28;20447;-50
2021/10/22 10:37:51;;;;;;;0.30;0.20;;;;;;;11.57;85.69;100556.16;5021308;28;20452;-49
2021/10/22 10:40:36;;;;;;;0.30;0.20;;;;;;;11.83;84.21;100555.44;5023679;28;20478;-50
2021/10/22 10:43:06;;;;;;;0.30;0.20;;;;;;;11.67;84.30;100554.13;5017988;28;20448;-49
2021/10/22 10:45:37;;;;;;;0.30;0.20;;;;;;;11.69;83.37;100553.16;5026265;28;20452;-50
2021/10/22 10:48:08;;;;;;;0.30;0.20;;;;;;;11.88;83.17;100560.63;5016936;28;20449;-50
2021/10/22 10:50:41;;;;;;;0.30;0.20;;;;;;;12.08;83.43;100552.94;5027676;28;20480;-50
2021/10/22 10:53:09;;;;;;;0.30;0.20;;;;;;;11.98;83.84;100549.66;5028201;28;21152;-50
2021/10/22 10:55:51;;;;;;;0.30;0.20;;;;;;;12.31;82.97;100544.19;5034569;28;20455;-50
2021/10/22 10:58:20;;;;;;;1.33;1.23;;;;;;;12.21;81.14;100548.97;5015274;28;20950;-50
2021/10/22 11:00:53;;;;;;;0.30;0.20;;;;;;;12.17;83.43;100539.28;5028594;28;20459;-50
2021/10/22 11:03:46;;;;;;;0.30;0.20;;;;;;;12.42;81.75;100537.59;5015103;28;20989;-50
2021/10/22 11:06:44;;;;;;;0.40;0.30;;;;;;;12.52;81.80;100535.53;5022347;28;20463;-50
2021/10/22 11:09:27;;;;;;;0.90;0.90;;;;;;;12.42;80.51;100528.75;5016582;28;20449;-50
2021/10/22 11:11:59;;;;;;;0.30;0.20;;;;;;;12.65;80.82;100528.88;5027415;28;20439;-50
2021/10/22 11:14:25;;;;;;;5.60;0.90;;;;;;;12.63;80.58;100520.03;5014578;28;20496;-50
2021/10/22 11:16:57;;;;;;;0.30;0.20;;;;;;;12.39;81.19;100524.38;5028011;28;20460;-50
2021/10/22 11:19:34;;;;;;;0.30;0.20;;;;;;;12.50;81.52;100528.50;5014702;28;20571;-50
2021/10/22 11:22:20;;;;;;;0.30;0.20;;;;;;;12.71;81.47;100520.63;5028057;28;20444;-50
2021/10/22 11:24:47;;;;;;;0.30;0.20;;;;;;;12.61;79.52;100516.56;5027633;28;20472;-50
2021/10/22 11:27:17;;;;;;;0.30;0.20;;;;;;;12.72;80.15;100511.72;5026896;28;20526;-50
2021/10/22 11:29:46;;;;;;;0.30;0.20;;;;;;;12.87;79.03;100514.78;5015638;28;20449;-49
2021/10/22 11:32:16;;;;;;;0.30;0.20;;;;;;;12.98;79.98;100510.81;5026420;28;20449;-50
2021/10/22 11:34:50;;;;;;;0.30;0.20;;;;;;;13.16;79.56;100512.00;5016618;28;20566;-49
2021/10/22 11:37:19;;;;;;;0.30;0.20;;;;;;;13.19;78.67;100503.03;5024588;28;20444;-50
2021/10/22 11:39:54;;;;;;;0.30;0.20;;;;;;;13.32;78.86;100512.34;5017574;28;20502;-49
2021/10/22 11:42:28;;;;;;;0.30;0.20;;;;;;;13.01;78.98;100523.19;5022785;28;20498;-50